Time;durP1;ratioP1;P1;durP2;ratioP2;P2;SDS_P1;SDS_P2;PMS_P1;PMS_P2;Temp;Humidity;BMP_temperature;BMP_pressure;BME280_temperature;BME280_humidity;BME280_pressure;Samples;Min_cycle;Max_cycle;Signal;HPM_P1;HPM_P2
2022/01/10 00:00:34;;;;;;;;;;;8.70;99.90;;;;;;5071682;28;19915;-79
2022/01/10 00:02:59;;;;;;;;;;;8.60;99.90;;;;;;5072752;28;19909;-77
2022/01/10 00:05:25;;;;;;;;;;;8.60;99.90;;;;;;5071441;28;19966;-78
2022/01/10 00:07:51;;;;;;;;;;;8.50;99.90;;;;;;5072238;28;19908;-80
2022/01/10 00:10:17;;;;;;;;;;;8.60;99.90;;;;;;5072796;28;19995;-77
2022/01/10 00:12:43;;;;;;;;;;;8.50;99.90;;;;;;5072842;28;19915;-81
2022/01/10 00:15:09;;;;;;;;;;;8.60;99.90;;;;;;5072537;28;19921;-80
2022/01/10 00:17:38;;;;;;;;;;;8.60;99.90;;;;;;5072246;28;19965;-78
2022/01/10 00:20:10;;;;;;;;;;;8.60;99.90;;;;;;5072648;28;19909;-78
2022/01/10 00:22:36;;;;;;;;;;;8.60;99.90;;;;;;5072320;28;19954;-79
2022/01/10 00:25:03;;;;;;;;;;;8.70;99.90;;;;;;5072576;28;19935;-78
2022/01/10 00:27:29;;;;;;;;;;;8.70;99.90;;;;;;5072147;28;19908;-78
2022/01/10 00:29:54;;;;;;;;;;;8.70;99.90;;;;;;5072580;28;19919;-79
2022/01/10 00:32:20;;;;;;;;;;;8.70;99.90;;;;;;5072443;28;20407;-77
2022/01/10 00:34:45;;;;;;;;;;;8.70;99.90;;;;;;5071072;28;19908;-78
2022/01/10 00:37:11;;;;;;;;;;;8.70;99.90;;;;;;5071967;28;20388;-78
2022/01/10 00:39:37;;;;;;;;;;;8.70;99.90;;;;;;5072598;28;20403;-79
2022/01/10 00:42:02;;;;;;;;;;;8.70;99.90;;;;;;5072334;28;19908;-78
2022/01/10 00:44:31;;;;;;;;;;;8.70;99.90;;;;;;5072367;28;20328;-77
2022/01/10 00:46:57;;;;;;;;;;;8.60;99.90;;;;;;5070609;28;19999;-79
2022/01/10 00:49:23;;;;;;;;;;;8.60;99.90;;;;;;5071055;28;19940;-78
2022/01/10 00:51:48;;;;;;;;;;;8.70;99.90;;;;;;5072402;28;19912;-78
2022/01/10 00:54:14;;;;;;;;;;;8.70;99.90;;;;;;5074314;28;19919;-76
2022/01/10 00:56:39;;;;;;;;;;;8.70;99.90;;;;;;5075514;28;20281;-82
2022/01/10 00:59:05;;;;;;;;;;;8.80;99.90;;;;;;5075579;28;20353;-79
2022/01/10 01:01:30;;;;;;;;;;;8.70;99.90;;;;;;5074446;28;20388;-80
2022/01/10 01:03:56;;;;;;;;;;;8.70;99.90;;;;;;5075747;28;19999;-76
2022/01/10 01:06:22;;;;;;;;;;;8.70;99.90;;;;;;5075580;28;20295;-79
2022/01/10 01:08:47;;;;;;;;;;;8.70;99.90;;;;;;5075515;28;20395;-77
2022/01/10 01:13:54;;;;;;;;;;;8.70;99.90;;;;;;5075146;28;20297;-79
2022/01/10 01:16:42;;;;;;;;;;;8.70;99.90;;;;;;5075253;28;19908;-78
2022/01/10 01:24:21;;;;;;;;;;;8.60;99.90;;;;;;5075198;28;19935;-78
2022/01/10 01:26:48;;;;;;;;;;;8.70;99.90;;;;;;5075030;28;20372;-78
2022/01/10 01:29:15;;;;;;;;;;;8.70;99.90;;;;;;5075281;28;20014;-79
2022/01/10 01:31:40;;;;;;;;;;;8.70;99.90;;;;;;5073947;28;19908;-79
2022/01/10 01:34:06;;;;;;;;;;;8.80;99.90;;;;;;5075062;28;19909;-80
2022/01/10 01:36:33;;;;;;;;;;;8.80;99.90;;;;;;5074836;28;20323;-79
2022/01/10 01:38:59;;;;;;;;;;;8.70;99.90;;;;;;5074807;28;19908;-78
2022/01/10 01:43:57;;;;;;;;;;;8.70;99.90;;;;;;5074617;28;19999;-78
2022/01/10 01:46:23;;;;;;;;;;;8.60;99.90;;;;;;5074586;28;19974;-80
2022/01/10 01:48:50;;;;;;;;;;;8.60;99.90;;;;;;5074867;28;20384;-81
2022/01/10 01:51:16;;;;;;;;;;;8.60;99.90;;;;;;5074906;28;19954;-79
2022/01/10 01:53:42;;;;;;;;;;;8.60;99.90;;;;;;5074640;28;19909;-78
2022/01/10 01:56:09;;;;;;;;;;;8.70;99.90;;;;;;5074586;28;19958;-76
2022/01/10 01:58:36;;;;;;;;;;;8.60;99.90;;;;;;5074585;28;19912;-80
2022/01/10 02:01:02;;;;;;;;;;;8.70;99.90;;;;;;5074766;28;19908;-79
2022/01/10 02:03:29;;;;;;;;;;;8.70;99.90;;;;;;5074131;28;19909;-81
2022/01/10 02:05:55;;;;;;;;;;;8.80;99.90;;;;;;5073212;28;20292;-78
2022/01/10 02:08:21;;;;;;;;;;;8.80;99.90;;;;;;5069339;28;19909;-77
2022/01/10 02:10:46;;;;;;;;;;;8.80;99.90;;;;;;5054508;28;20369;-79
2022/01/10 02:13:12;;;;;;;;;;;8.80;99.90;;;;;;5054291;28;19909;-79
2022/01/10 02:15:50;;;;;;;;;;;8.80;99.90;;;;;;5054399;28;19974;-81
2022/01/10 02:18:17;;;;;;;;;;;8.70;99.90;;;;;;5071911;28;19915;-83
2022/01/10 02:20:43;;;;;;;;;;;8.80;99.90;;;;;;5074188;28;20324;-79
2022/01/10 02:23:09;;;;;;;;;;;8.80;99.90;;;;;;5073914;28;19923;-77
2022/01/10 02:25:35;;;;;;;;;;;8.70;99.90;;;;;;5074001;28;19916;-78
2022/01/10 02:28:00;;;;;;;;;;;8.70;99.90;;;;;;5073580;28;20335;-79
2022/01/10 02:30:26;;;;;;;;;;;8.70;99.90;;;;;;5074074;28;20361;-78
2022/01/10 02:32:56;;;;;;;;;;;8.80;99.90;;;;;;5073989;28;19908;-79
2022/01/10 02:35:23;;;;;;;;;;;8.80;99.90;;;;;;5072349;28;19908;-78
2022/01/10 02:37:51;;;;;;;;;;;8.80;99.90;;;;;;5068603;28;19909;-79
2022/01/10 02:40:19;;;;;;;;;;;8.80;99.90;;;;;;5053924;28;20011;-78
2022/01/10 02:42:44;;;;;;;;;;;8.70;99.90;;;;;;5053794;28;19919;-79
2022/01/10 02:45:10;;;;;;;;;;;8.60;99.90;;;;;;5069084;28;19913;-78
2022/01/10 02:47:36;;;;;;;;;;;8.70;99.90;;;;;;5063476;28;19995;-80
2022/01/10 02:50:02;;;;;;;;;;;8.50;99.90;;;;;;5073714;28;20361;-81
2022/01/10 02:52:27;;;;;;;;;;;8.60;99.90;;;;;;5073630;28;20404;-79
2022/01/10 02:54:53;;;;;;;;;;;8.70;99.90;;;;;;5089194;28;19940;-80
2022/01/10 02:57:19;;;;;;;;;;;8.70;99.90;;;;;;5073298;28;19908;-77
2022/01/10 02:59:45;;;;;;;;;;;8.70;99.90;;;;;;5073485;28;19912;-79
2022/01/10 03:02:11;;;;;;;;;;;8.70;99.90;;;;;;5073634;28;19989;-79
2022/01/10 03:04:36;;;;;;;;;;;8.70;99.90;;;;;;5073331;28;19927;-80
2022/01/10 03:07:02;;;;;;;;;;;8.70;99.90;;;;;;5073164;28;19909;-80
2022/01/10 03:09:28;;;;;;;;;;;8.70;99.90;;;;;;5073409;28;20380;-79
2022/01/10 03:11:55;;;;;;;;;;;8.60;99.90;;;;;;5073383;28;19908;-79
2022/01/10 03:14:20;;;;;;;;;;;8.60;99.90;;;;;;5071763;28;19973;-80
2022/01/10 03:16:46;;;;;;;;;;;8.60;99.90;;;;;;5072465;28;19908;-81
2022/01/10 03:19:12;;;;;;;;;;;8.60;99.90;;;;;;5073269;28;19915;-78
2022/01/10 03:21:37;;;;;;;;;;;8.70;99.90;;;;;;5073188;28;19909;-80
2022/01/10 03:24:03;;;;;;;;;;;8.70;99.90;;;;;;5071825;28;19908;-81
2022/01/10 03:26:29;;;;;;;;;;;8.80;99.90;;;;;;5072965;28;19909;-80
2022/01/10 03:28:55;;;;;;;;;;;8.80;99.90;;;;;;5071805;28;20361;-81
2022/01/10 03:31:20;;;;;;;;;;;8.80;99.90;;;;;;5073268;28;19908;-80
2022/01/10 03:33:46;;;;;;;;;;;8.80;99.90;;;;;;5088574;28;19916;-78
2022/01/10 03:36:12;;;;;;;;;;;8.80;99.90;;;;;;5073077;28;19999;-80
2022/01/10 03:38:37;;;;;;;;;;;8.80;99.90;;;;;;5072510;28;19931;-79
2022/01/10 03:41:03;;;;;;;;;;;8.80;99.90;;;;;;5072936;28;19995;-79
2022/01/10 03:43:28;;;;;;;;;;;8.80;99.90;;;;;;5073140;28;19909;-81
2022/01/10 03:45:55;;;;;;;;;;;8.90;99.90;;;;;;5072746;28;20426;-77
2022/01/10 03:48:21;;;;;;;;;;;8.90;99.90;;;;;;5072632;28;19913;-81
2022/01/10 03:50:46;;;;;;;;;;;8.90;99.90;;;;;;5072899;28;20365;-81
2022/01/10 03:53:12;;;;;;;;;;;8.80;99.90;;;;;;5072511;28;19908;-78
2022/01/10 03:55:38;;;;;;;;;;;8.80;99.90;;;;;;5072957;28;19908;-82
2022/01/10 03:58:04;;;;;;;;;;;8.90;99.90;;;;;;5072382;28;20277;-77
2022/01/10 04:00:29;;;;;;;;;;;8.90;99.90;;;;;;5072892;28;19909;-80
2022/01/10 04:03:01;;;;;;;;;;;8.90;99.90;;;;;;5071450;28;19909;-77
2022/01/10 04:05:27;;;;;;;;;;;9.00;99.90;;;;;;5072900;28;20293;-81
2022/01/10 04:07:52;;;;;;;;;;;8.90;99.90;;;;;;5072404;28;19916;-79
2022/01/10 04:10:18;;;;;;;;;;;8.90;99.90;;;;;;5072593;28;20365;-77
2022/01/10 04:12:43;;;;;;;;;;;8.90;99.90;;;;;;5072789;28;19915;-79
2022/01/10 04:15:09;;;;;;;;;;;8.90;99.90;;;;;;5070969;28;20442;-80
2022/01/10 04:17:35;;;;;;;;;;;8.90;99.90;;;;;;5072437;28;19912;-79
2022/01/10 04:20:01;;;;;;;;;;;8.90;99.90;;;;;;5072749;28;19912;-82
2022/01/10 04:22:26;;;;;;;;;;;8.90;99.90;;;;;;5072348;28;19909;-79
2022/01/10 04:24:52;;;;;;;;;;;8.90;99.90;;;;;;5072636;28;20290;-79
2022/01/10 04:27:18;;;;;;;;;;;8.90;99.90;;;;;;5074469;28;19912;-78
2022/01/10 04:29:43;;;;;;;;;;;8.80;99.90;;;;;;5076404;28;19909;-80
2022/01/10 04:32:11;;;;;;;;;;;8.90;99.90;;;;;;5076272;28;20011;-77
2022/01/10 04:34:37;;;;;;;;;;;8.80;99.90;;;;;;5076138;28;19991;-82
2022/01/10 04:37:03;;;;;;;;;;;8.80;99.90;;;;;;5075929;28;19947;-81
2022/01/10 04:39:28;;;;;;;;;;;8.90;99.90;;;;;;5076234;28;19909;-79
2022/01/10 04:41:54;;;;;;;;;;;8.80;99.90;;;;;;5076160;28;20369;-80
2022/01/10 04:44:20;;;;;;;;;;;8.80;99.90;;;;;;5076002;28;19916;-78
2022/01/10 04:46:45;;;;;;;;;;;8.80;99.90;;;;;;5074371;28;19934;-79
2022/01/10 04:49:21;;;;;;;;;;;8.80;99.90;;;;;;5075982;28;19908;-77
2022/01/10 04:51:47;;;;;;;;;;;8.90;99.90;;;;;;5076117;28;19908;-78
2022/01/10 04:54:12;;;;;;;;;;;8.90;99.90;;;;;;5075666;28;20400;-78
2022/01/10 04:56:38;;;;;;;;;;;8.90;99.90;;;;;;5075990;28;19916;-79
2022/01/10 04:59:04;;;;;;;;;;;8.90;99.90;;;;;;5075262;28;20369;-78
2022/01/10 05:01:29;;;;;;;;;;;8.90;99.90;;;;;;5091536;28;19915;-77
2022/01/10 05:03:55;;;;;;;;;;;8.80;99.90;;;;;;5075928;28;19908;-79
2022/01/10 05:06:20;;;;;;;;;;;8.80;99.90;;;;;;5075678;28;19912;-80
2022/01/10 05:08:46;;;;;;;;;;;8.80;99.90;;;;;;5070704;28;19916;-77
2022/01/10 05:11:12;;;;;;;;;;;8.70;99.90;;;;;;5055232;28;19954;-79
2022/01/10 05:13:37;;;;;;;;;;;8.70;99.90;;;;;;5055439;28;19921;-80
2022/01/10 05:16:04;;;;;;;;;;;8.60;99.90;;;;;;5055644;28;19909;-83
2022/01/10 05:18:31;;;;;;;;;;;8.60;99.90;;;;;;5069177;28;19908;-78
2022/01/10 05:20:56;;;;;;;;;;;8.60;99.90;;;;;;5075548;28;20054;-79
2022/01/10 05:23:22;;;;;;;;;;;8.60;99.90;;;;;;5075195;28;19966;-79
2022/01/10 05:25:48;;;;;;;;;;;8.70;99.90;;;;;;5075488;28;19935;-78
2022/01/10 05:28:14;;;;;;;;;;;8.80;99.90;;;;;;5070278;28;19909;-82
2022/01/10 05:30:40;;;;;;;;;;;8.90;99.90;;;;;;5055312;28;19912;-80
2022/01/10 05:33:07;;;;;;;;;;;8.80;99.90;;;;;;5055202;28;20281;-80
2022/01/10 05:35:33;;;;;;;;;;;8.80;99.90;;;;;;5053817;28;19916;-80
2022/01/10 05:37:59;;;;;;;;;;;8.80;99.90;;;;;;5063219;28;20335;-78
2022/01/10 05:40:25;;;;;;;;;;;8.80;99.90;;;;;;5074982;28;19920;-82
2022/01/10 05:42:50;;;;;;;;;;;8.80;99.90;;;;;;5075062;28;20365;-81
2022/01/10 05:45:16;;;;;;;;;;;8.80;99.90;;;;;;5074823;28;20497;-78
2022/01/10 05:47:44;;;;;;;;;;;8.70;99.90;;;;;;5074579;28;20296;-79
2022/01/10 05:50:11;;;;;;;;;;;8.70;99.90;;;;;;5074906;28;19909;-80
2022/01/10 05:52:37;;;;;;;;;;;8.60;99.90;;;;;;5090312;28;19908;-80
2022/01/10 05:55:03;;;;;;;;;;;8.60;99.90;;;;;;5074799;28;20327;-81
2022/01/10 05:57:28;;;;;;;;;;;8.60;99.90;;;;;;5074314;28;19916;-80
2022/01/10 05:59:54;;;;;;;;;;;8.60;99.90;;;;;;5074753;28;19912;-77
2022/01/10 06:02:19;;;;;;;;;;;8.60;99.90;;;;;;5074653;28;20308;-78
2022/01/10 06:04:45;;;;;;;;;;;8.70;99.90;;;;;;5074508;28;19943;-79
2022/01/10 06:07:12;;;;;;;;;;;8.70;99.90;;;;;;5074250;28;20341;-78
2022/01/10 06:09:38;;;;;;;;;;;8.70;99.90;;;;;;5074352;28;19931;-79
2022/01/10 06:12:04;;;;;;;;;;;8.70;99.90;;;;;;5090008;28;19908;-81
2022/01/10 06:14:29;;;;;;;;;;;8.80;99.90;;;;;;5074123;28;19920;-78
2022/01/10 06:16:55;;;;;;;;;;;8.80;99.90;;;;;;5074368;28;19922;-81
2022/01/10 06:19:20;;;;;;;;;;;8.80;99.90;;;;;;5069147;28;19909;-77
2022/01/10 06:21:46;;;;;;;;;;;8.80;99.90;;;;;;5054019;28;19912;-82
2022/01/10 06:24:12;;;;;;;;;;;8.80;99.90;;;;;;5053847;28;19923;-79
2022/01/10 06:26:37;;;;;;;;;;;8.70;99.90;;;;;;5054200;28;19935;-79
2022/01/10 06:29:03;;;;;;;;;;;8.70;99.90;;;;;;5068797;28;20329;-80
2022/01/10 06:31:29;;;;;;;;;;;8.70;99.90;;;;;;5073995;28;19915;-79
2022/01/10 06:33:54;;;;;;;;;;;8.70;99.90;;;;;;5073906;28;19940;-79
2022/01/10 06:36:20;;;;;;;;;;;8.60;99.90;;;;;;5073958;28;20297;-80
2022/01/10 06:38:45;;;;;;;;;;;8.70;99.90;;;;;;5089007;28;19935;-81
2022/01/10 06:41:11;;;;;;;;;;;8.70;99.90;;;;;;5073913;28;19937;-78
2022/01/10 06:43:37;;;;;;;;;;;8.60;99.90;;;;;;5073770;28;19991;-77
2022/01/10 06:46:03;;;;;;;;;;;8.60;99.90;;;;;;5073672;28;19919;-78
2022/01/10 06:48:29;;;;;;;;;;;8.60;99.90;;;;;;5073242;28;19909;-79
2022/01/10 06:50:55;;;;;;;;;;;8.70;99.90;;;;;;5073705;28;20351;-79
2022/01/10 06:53:21;;;;;;;;;;;8.60;99.90;;;;;;5073536;28;19999;-81
2022/01/10 06:55:47;;;;;;;;;;;8.60;99.90;;;;;;5073629;28;19958;-81
2022/01/10 06:58:13;;;;;;;;;;;8.60;99.90;;;;;;5073265;28;19913;-81
2022/01/10 07:00:39;;;;;;;;;;;8.60;99.90;;;;;;5072285;28;19908;-79
2022/01/10 07:03:04;;;;;;;;;;;8.60;99.90;;;;;;5072251;28;19912;-82
2022/01/10 07:05:30;;;;;;;;;;;8.60;99.90;;;;;;5073339;28;20004;-79
2022/01/10 07:07:56;;;;;;;;;;;8.60;99.90;;;;;;5068426;28;19909;-80
2022/01/10 07:10:22;;;;;;;;;;;8.60;99.90;;;;;;5053243;28;19958;-80
2022/01/10 07:12:47;;;;;;;;;;;8.50;99.90;;;;;;5053236;28;19916;-80
2022/01/10 07:15:14;;;;;;;;;;;8.50;99.90;;;;;;5052936;28;20301;-81
2022/01/10 07:17:40;;;;;;;;;;;8.50;99.90;;;;;;5056497;28;19943;-81
2022/01/10 07:20:06;;;;;;;;;;;8.50;99.90;;;;;;5073274;28;19941;-83
2022/01/10 07:22:32;;;;;;;;;;;8.50;99.90;;;;;;5071699;28;19916;-80
2022/01/10 07:24:57;;;;;;;;;;;8.40;99.90;;;;;;5073072;28;20285;-79
2022/01/10 07:27:23;;;;;;;;;;;8.50;99.90;;;;;;5073128;28;19976;-80
2022/01/10 07:29:50;;;;;;;;;;;8.50;99.90;;;;;;5073175;28;19908;-79
2022/01/10 07:32:17;;;;;;;;;;;8.50;99.90;;;;;;5073169;28;20041;-82
2022/01/10 07:34:42;;;;;;;;;;;8.40;99.90;;;;;;5072896;28;19908;-80
2022/01/10 07:37:08;;;;;;;;;;;8.40;99.90;;;;;;5071788;28;20343;-79
2022/01/10 07:39:34;;;;;;;;;;;8.40;99.90;;;;;;5067969;28;20003;-80
2022/01/10 07:41:59;;;;;;;;;;;8.40;99.90;;;;;;5052920;28;20320;-78
2022/01/10 07:44:25;;;;;;;;;;;8.40;99.90;;;;;;5068429;28;20015;-78
2022/01/10 07:46:50;;;;;;;;;;;8.50;99.90;;;;;;5052694;28;20384;-78
2022/01/10 07:49:16;;;;;;;;;;;8.50;99.90;;;;;;5068320;28;19915;-78
2022/01/10 07:51:41;;;;;;;;;;;8.50;99.90;;;;;;5073080;28;19909;-80
2022/01/10 07:54:07;;;;;;;;;;;8.50;99.90;;;;;;5072612;28;20273;-79
2022/01/10 07:56:32;;;;;;;;;;;8.40;99.90;;;;;;5071694;28;19909;-80
2022/01/10 07:58:59;;;;;;;;;;;8.40;99.90;;;;;;5072264;28;19935;-78
2022/01/10 08:01:24;;;;;;;;;;;8.50;99.90;;;;;;5072397;28;19909;-80
2022/01/10 08:03:50;;;;;;;;;;;8.60;99.90;;;;;;5076876;28;20014;-78
2022/01/10 08:06:19;;;;;;;;;;;8.60;99.90;;;;;;5076514;28;19920;-78
2022/01/10 08:08:44;;;;;;;;;;;8.60;99.90;;;;;;5076316;28;19923;-81
2022/01/10 08:11:10;;;;;;;;;;;8.70;99.90;;;;;;5076397;28;19909;-79
2022/01/10 08:13:36;;;;;;;;;;;8.70;99.90;;;;;;5076549;28;19966;-78
2022/01/10 08:16:01;;;;;;;;;;;8.60;99.90;;;;;;5076676;28;19909;-81
2022/01/10 08:18:30;;;;;;;;;;;8.60;99.90;;;;;;5071717;28;19909;-80
2022/01/10 08:20:56;;;;;;;;;;;8.60;99.90;;;;;;5056533;28;19962;-78
2022/01/10 08:23:21;;;;;;;;;;;8.60;99.90;;;;;;5055004;28;19913;-80
2022/01/10 08:25:47;;;;;;;;;;;8.60;99.90;;;;;;5056437;28;19912;-79
2022/01/10 08:28:13;;;;;;;;;;;8.50;99.90;;;;;;5061983;28;19947;-79
2022/01/10 08:30:38;;;;;;;;;;;8.50;99.90;;;;;;5076553;28;20372;-78
2022/01/10 08:33:04;;;;;;;;;;;8.50;99.90;;;;;;5076262;28;19913;-78
2022/01/10 08:35:30;;;;;;;;;;;8.50;99.90;;;;;;5075090;28;19953;-78
2022/01/10 08:37:55;;;;;;;;;;;8.50;99.90;;;;;;5075810;28;19912;-80
2022/01/10 08:40:21;;;;;;;;;;;8.50;99.90;;;;;;5076150;28;19909;-78
2022/01/10 08:42:46;;;;;;;;;;;8.50;99.90;;;;;;5076197;28;19909;-80
2022/01/10 08:45:12;;;;;;;;;;;8.50;99.90;;;;;;5075998;28;19995;-79
2022/01/10 08:47:38;;;;;;;;;;;8.50;99.90;;;;;;5076062;28;20277;-79
2022/01/10 08:50:05;;;;;;;;;;;8.50;99.90;;;;;;5074744;28;19908;-80
2022/01/10 08:52:31;;;;;;;;;;;8.60;99.90;;;;;;5075868;28;19908;-80
2022/01/10 08:54:56;;;;;;;;;;;8.50;99.90;;;;;;5075985;28;19942;-79
2022/01/10 08:57:22;;;;;;;;;;;8.50;99.90;;;;;;5075793;28;19915;-80
2022/01/10 08:59:47;;;;;;;;;;;8.50;99.90;;;;;;5070802;28;19940;-81
2022/01/10 09:02:13;;;;;;;;;;;8.60;99.90;;;;;;5055728;28;19948;-79
2022/01/10 09:04:39;;;;;;;;;;;8.60;99.90;;;;;;5055901;28;20003;-80
2022/01/10 09:07:08;;;;;;;;;;;8.70;99.90;;;;;;5055644;28;19920;-80
2022/01/10 09:09:33;;;;;;;;;;;8.70;99.90;;;;;;5070839;28;19908;-80
2022/01/10 09:11:59;;;;;;;;;;;8.70;99.90;;;;;;5075929;28;19909;-79
2022/01/10 09:14:25;;;;;;;;;;;8.60;99.90;;;;;;5074149;28;20433;-80
2022/01/10 09:16:50;;;;;;;;;;;8.70;99.90;;;;;;5075570;28;19908;-80
2022/01/10 09:19:16;;;;;;;;;;;8.70;99.90;;;;;;5075107;28;19975;-80
2022/01/10 09:21:41;;;;;;;;;;;8.60;99.90;;;;;;5075276;28;19961;-80
2022/01/10 09:24:07;;;;;;;;;;;8.70;99.90;;;;;;5075085;28;20389;-80
2022/01/10 09:26:33;;;;;;;;;;;8.60;99.90;;;;;;5075289;28;19927;-80
2022/01/10 09:28:59;;;;;;;;;;;8.60;99.90;;;;;;5074946;28;20432;-80
2022/01/10 09:31:25;;;;;;;;;;;8.70;99.90;;;;;;5075263;28;20450;-80
2022/01/10 09:33:56;;;;;;;;;;;8.70;99.90;;;;;;5075220;28;19908;-80
2022/01/10 09:36:23;;;;;;;;;;;8.70;99.90;;;;;;5073612;28;19962;-80
2022/01/10 09:38:49;;;;;;;;;;;8.70;99.90;;;;;;5090342;28;19932;-80
2022/01/10 09:41:14;;;;;;;;;;;8.70;99.90;;;;;;5075017;28;20373;-80
2022/01/10 09:44:01;;;;;;;;;;;8.70;99.90;;;;;;5075032;28;19995;-80
2022/01/10 09:46:27;;;;;;;;;;;8.70;99.90;;;;;;5073317;28;20400;-80
2022/01/10 09:48:53;;;;;;;;;;;8.90;99.90;;;;;;5074523;28;19954;-80
2022/01/10 09:51:21;;;;;;;;;;;8.80;99.90;;;;;;5073617;28;19922;-80
2022/01/10 09:53:48;;;;;;;;;;;8.80;99.90;;;;;;5074636;28;20300;-80
2022/01/10 09:56:13;;;;;;;;;;;8.80;99.90;;;;;;5074761;28;19958;-79
2022/01/10 09:58:39;;;;;;;;;;;8.80;99.90;;;;;;5089830;28;19908;-80
2022/01/10 10:01:04;;;;;;;;;;;8.80;99.90;;;;;;5074774;28;19913;-79
2022/01/10 10:03:30;;;;;;;;;;;8.80;99.90;;;;;;5074351;28;20090;-80
2022/01/10 10:05:56;;;;;;;;;;;8.80;99.90;;;;;;5074547;28;19912;-79
2022/01/10 10:08:22;;;;;;;;;;;8.90;99.90;;;;;;5074041;28;19916;-80
2022/01/10 10:10:48;;;;;;;;;;;8.90;99.90;;;;;;5074212;28;19908;-80
2022/01/10 10:13:14;;;;;;;;;;;8.90;99.90;;;;;;5072957;28;20396;-80
2022/01/10 10:15:41;;;;;;;;;;;8.90;99.90;;;;;;5074419;28;20270;-80
2022/01/10 10:18:08;;;;;;;;;;;8.90;99.90;;;;;;5074103;28;19909;-80
2022/01/10 10:20:34;;;;;;;;;;;9.00;99.90;;;;;;5074192;28;20007;-79
2022/01/10 10:23:02;;;;;;;;;;;9.10;99.90;;;;;;5073971;28;20411;-80
2022/01/10 10:25:27;;;;;;;;;;;9.10;99.90;;;;;;5073825;28;20371;-79
2022/01/10 10:27:53;;;;;;;;;;;9.10;99.90;;;;;;5074150;28;19915;-79
2022/01/10 10:30:20;;;;;;;;;;;9.20;99.90;;;;;;5073831;28;19958;-80
2022/01/10 10:32:46;;;;;;;;;;;9.20;99.90;;;;;;5074304;28;19909;-80
2022/01/10 10:35:12;;;;;;;;;;;9.20;99.90;;;;;;5073801;28;20468;-79
2022/01/10 10:37:39;;;;;;;;;;;9.30;99.90;;;;;;5073884;28;19953;-80
2022/01/10 10:40:07;;;;;;;;;;;9.20;99.90;;;;;;5068893;28;19999;-79
2022/01/10 10:42:33;;;;;;;;;;;9.30;99.90;;;;;;5053919;28;19909;-79
2022/01/10 10:45:02;;;;;;;;;;;9.30;99.90;;;;;;5052510;28;20392;-80
2022/01/10 10:47:28;;;;;;;;;;;9.30;99.90;;;;;;5053798;28;19916;-80
2022/01/10 10:49:57;;;;;;;;;;;9.30;99.90;;;;;;5068793;28;19912;-79
2022/01/10 10:52:29;;;;;;;;;;;9.40;99.90;;;;;;5073711;28;19913;-80
2022/01/10 10:54:55;;;;;;;;;;;9.40;99.90;;;;;;5073666;28;19947;-80
2022/01/10 10:57:21;;;;;;;;;;;9.40;99.90;;;;;;5073627;28;19913;-79
2022/01/10 10:59:48;;;;;;;;;;;9.50;99.90;;;;;;5068436;28;19996;-79
2022/01/10 11:02:15;;;;;;;;;;;9.40;99.90;;;;;;5052313;28;19909;-79
2022/01/10 11:04:41;;;;;;;;;;;9.50;99.90;;;;;;5053340;28;20235;-79
2022/01/10 11:07:07;;;;;;;;;;;9.50;99.90;;;;;;5053517;28;19947;-79
2022/01/10 11:09:33;;;;;;;;;;;9.50;99.90;;;;;;5064973;28;19908;-79
2022/01/10 11:11:58;;;;;;;;;;;9.40;99.90;;;;;;5073389;28;19944;-79
2022/01/10 11:14:24;;;;;;;;;;;9.40;99.90;;;;;;5073190;28;19966;-79
2022/01/10 11:16:52;;;;;;;;;;;9.50;99.90;;;;;;5073378;28;19947;-79
2022/01/10 11:19:21;;;;;;;;;;;9.60;99.90;;;;;;5068421;28;19909;-79
2022/01/10 11:21:59;;;;;;;;;;;9.70;99.90;;;;;;5053027;28;19957;-79
2022/01/10 11:24:46;;;;;;;;;;;9.70;99.90;;;;;;5053156;28;19908;-79
2022/01/10 11:27:27;;;;;;;;;;;9.60;99.90;;;;;;5053282;28;19909;-79
2022/01/10 11:29:55;;;;;;;;;;;9.60;99.90;;;;;;5066913;28;19909;-79
2022/01/10 11:32:21;;;;;;;;;;;9.70;99.90;;;;;;5073242;28;19952;-79
2022/01/10 11:34:47;;;;;;;;;;;9.70;99.90;;;;;;5072849;28;19908;-79
2022/01/10 11:37:13;;;;;;;;;;;9.70;99.90;;;;;;5072378;28;20317;-79
2022/01/10 11:39:40;;;;;;;;;;;9.60;99.90;;;;;;5072666;28;19959;-79
2022/01/10 11:42:32;;;;;;;;;;;9.60;99.90;;;;;;5072981;28;19991;-79
2022/01/10 11:45:07;;;;;;;;;;;9.60;99.90;;;;;;5071593;28;19966;-79
2022/01/10 11:47:53;;;;;;;;;;;9.70;99.90;;;;;;5073000;28;19915;-79
2022/01/10 11:50:26;;;;;;;;;;;9.60;99.90;;;;;;5072641;28;19909;-79
2022/01/10 11:52:56;;;;;;;;;;;9.60;99.90;;;;;;5072859;28;19916;-79
2022/01/10 11:55:30;;;;;;;;;;;9.70;99.90;;;;;;5073040;28;20392;-79
2022/01/10 11:58:01;;;;;;;;;;;9.70;99.90;;;;;;5072673;28;19951;-78
2022/01/10 12:00:35;;;;;;;;;;;9.70;99.90;;;;;;5067757;28;20004;-79
2022/01/10 12:03:01;;;;;;;;;;;9.60;99.90;;;;;;5051450;28;19909;-79
2022/01/10 12:05:26;;;;;;;;;;;9.60;99.90;;;;;;5052904;28;19955;-79
2022/01/10 12:07:52;;;;;;;;;;;9.60;99.90;;;;;;5052619;28;19909;-78
2022/01/10 12:10:17;;;;;;;;;;;9.60;99.90;;;;;;5068647;28;19915;-79
2022/01/10 12:12:43;;;;;;;;;;;9.60;99.90;;;;;;5072815;28;19908;-78
2022/01/10 12:15:09;;;;;;;;;;;9.60;99.90;;;;;;5072341;28;19921;-79
2022/01/10 12:17:36;;;;;;;;;;;9.60;99.90;;;;;;5072832;28;20012;-79
2022/01/10 12:20:03;;;;;;;;;;;9.50;99.90;;;;;;5072189;28;19909;-78
2022/01/10 12:22:28;;;;;;;;;;;9.60;99.90;;;;;;5071209;28;20332;-78
2022/01/10 12:24:55;;;;;;;;;;;9.60;99.90;;;;;;5072563;28;20010;-79
2022/01/10 12:27:21;;;;;;;;;;;9.60;99.90;;;;;;5072587;28;19935;-79
2022/01/10 12:29:46;;;;;;;;;;;9.60;99.90;;;;;;5072146;28;19930;-79
2022/01/10 12:32:12;;;;;;;;;;;9.60;99.90;;;;;;5072523;28;20409;-79
2022/01/10 12:34:42;;;;;;;;;;;9.60;99.90;;;;;;5072400;28;19908;-79
2022/01/10 12:37:08;;;;;;;;;;;9.60;99.90;;;;;;5072575;28;19956;-79
2022/01/10 12:39:35;;;;;;;;;;;9.50;99.90;;;;;;5072213;28;19993;-79
2022/01/10 12:42:01;;;;;;;;;;;9.50;99.90;;;;;;5072479;28;19909;-79
2022/01/10 12:44:27;;;;;;;;;;;9.50;99.90;;;;;;5072335;28;20306;-79
2022/01/10 12:46:53;;;;;;;;;;;9.50;99.90;;;;;;5072295;28;20011;-79
2022/01/10 12:49:19;;;;;;;;;;;9.50;99.90;;;;;;5075527;28;19955;-79
2022/01/10 12:51:45;;;;;;;;;;;9.60;99.90;;;;;;5076146;28;19915;-79
2022/01/10 12:54:13;;;;;;;;;;;9.60;99.90;;;;;;5075688;28;19908;-79
2022/01/10 12:56:39;;;;;;;;;;;9.60;99.90;;;;;;5076041;28;19932;-79
2022/01/10 12:59:04;;;;;;;;;;;9.70;99.90;;;;;;5075307;28;20376;-78
2022/01/10 13:01:30;;;;;;;;;;;9.60;99.90;;;;;;5075873;28;19909;-78
2022/01/10 13:04:00;;;;;;;;;;;9.70;99.90;;;;;;5075860;28;19919;-78
2022/01/10 13:06:28;;;;;;;;;;;9.80;99.90;;;;;;5074630;28;20371;-78
2022/01/10 13:08:54;;;;;;;;;;;9.80;99.90;;;;;;5075247;28;20299;-78
2022/01/10 13:11:22;;;;;;;;;;;9.90;99.90;;;;;;5075658;28;19916;-78
2022/01/10 13:13:48;;;;;;;;;;;10.00;99.90;;;;;;5075457;28;19928;-78
2022/01/10 13:16:21;;;;;;;;;;;10.00;99.90;;;;;;5074309;28;19995;-78
2022/01/10 13:18:54;;;;;;;;;;;9.90;99.90;;;;;;5075230;28;19908;-78
2022/01/10 13:21:50;;;;;;;;;;;9.90;99.90;;;;;;5075368;28;19924;-78
2022/01/10 13:24:20;;;;;;;;;;;10.00;99.90;;;;;;5074401;28;19940;-79
2022/01/10 13:27:03;;;;;;;;;;;10.10;99.90;;;;;;5090997;28;19999;-78
2022/01/10 13:29:32;;;;;;;;;;;10.20;99.90;;;;;;5074974;28;20304;-78
2022/01/10 13:31:57;;;;;;;;;;;10.20;99.90;;;;;;5073990;28;20019;-78
2022/01/10 13:34:24;;;;;;;;;;;10.20;99.90;;;;;;5075060;28;19944;-77
2022/01/10 13:36:50;;;;;;;;;;;10.20;99.90;;;;;;5075281;28;19946;-78
2022/01/10 13:39:18;;;;;;;;;;;10.30;99.90;;;;;;5074620;28;19920;-78
2022/01/10 13:41:56;;;;;;;;;;;10.20;99.90;;;;;;5075094;28;19915;-78
2022/01/10 13:44:21;;;;;;;;;;;10.10;99.90;;;;;;5074998;28;19915;-78
2022/01/10 13:46:47;;;;;;;;;;;9.80;99.90;;;;;;5074822;28;19912;-78
2022/01/10 13:49:25;;;;;;;;;;;9.80;99.90;;;;;;5074721;28;19915;-78
2022/01/10 13:52:06;;;;;;;;;;;9.90;99.90;;;;;;5075037;28;19916;-78
2022/01/10 13:54:31;;;;;;;;;;;9.90;99.90;;;;;;5074920;28;19908;-78
2022/01/10 13:56:57;;;;;;;;;;;9.80;99.90;;;;;;5090391;28;20331;-78
2022/01/10 13:59:22;;;;;;;;;;;9.90;99.90;;;;;;5073816;28;19952;-78
2022/01/10 14:01:54;;;;;;;;;;;9.90;99.90;;;;;;5074813;28;19962;-78
2022/01/10 14:04:24;;;;;;;;;;;9.90;99.90;;;;;;5074756;28;19909;-78
2022/01/10 14:06:49;;;;;;;;;;;9.90;99.90;;;;;;5073410;28;20003;-78
2022/01/10 14:09:15;;;;;;;;;;;10.10;99.90;;;;;;5074087;28;19999;-78
2022/01/10 14:11:41;;;;;;;;;;;10.10;99.90;;;;;;5073032;28;20364;-78
2022/01/10 14:14:09;;;;;;;;;;;10.20;99.90;;;;;;5074266;28;19920;-79
2022/01/10 14:16:39;;;;;;;;;;;10.30;99.90;;;;;;5074472;28;20016;-78
2022/01/10 14:19:06;;;;;;;;;;;10.40;99.90;;;;;;5074138;28;19915;-79
2022/01/10 14:21:32;;;;;;;;;;;10.40;99.90;;;;;;5074242;28;19916;-78
2022/01/10 14:23:58;;;;;;;;;;;10.50;99.90;;;;;;5074140;28;19912;-78
2022/01/10 14:26:24;;;;;;;;;;;10.50;99.90;;;;;;5074091;28;19916;-78
2022/01/10 14:28:50;;;;;;;;;;;10.40;99.90;;;;;;5074181;28;20304;-78
2022/01/10 14:31:16;;;;;;;;;;;10.40;99.90;;;;;;5072585;28;19958;-78
2022/01/10 14:33:42;;;;;;;;;;;10.40;99.90;;;;;;5073891;28;19908;-78
2022/01/10 14:36:07;;;;;;;;;;;10.50;99.90;;;;;;5074201;28;19915;-78